createdAt,value
2023-04-02T00:01:17.307Z,13.90
2023-04-02T00:03:44.711Z,13.90
2023-04-02T00:06:30.575Z,13.90
2023-04-02T00:09:07.885Z,13.90
2023-04-02T00:11:37.357Z,13.80
2023-04-02T00:14:05.610Z,13.80
2023-04-02T00:16:32.635Z,13.80
2023-04-02T00:19:01.751Z,13.70
2023-04-02T00:21:31.473Z,13.70
2023-04-02T00:24:00.129Z,13.70
2023-04-02T00:26:41.283Z,13.70
2023-04-02T00:29:10.023Z,13.70
2023-04-02T00:31:38.218Z,13.60
2023-04-02T00:34:07.182Z,13.60
2023-04-02T00:36:34.617Z,13.60
2023-04-02T00:39:03.022Z,13.60
2023-04-02T00:41:30.845Z,13.60
2023-04-02T00:43:58.930Z,13.60
2023-04-02T00:46:30.169Z,13.50
2023-04-02T00:48:56.893Z,13.50
2023-04-02T00:51:39.339Z,13.50
2023-04-02T00:54:07.892Z,13.50
2023-04-02T00:56:39.034Z,13.50
2023-04-02T00:59:16.677Z,13.50
2023-04-02T01:01:44.015Z,13.50
2023-04-02T01:04:49.645Z,13.50
2023-04-02T01:07:16.797Z,13.50
2023-04-02T01:09:43.773Z,13.50
2023-04-02T01:12:16.635Z,13.50
2023-04-02T01:14:45.946Z,13.50
2023-04-02T01:17:22.864Z,13.50
2023-04-02T01:19:50.482Z,13.50
2023-04-02T01:22:30.982Z,13.50
2023-04-02T01:24:58.315Z,13.40
2023-04-02T01:27:28.855Z,13.30
2023-04-02T01:29:59.842Z,13.30
2023-04-02T01:32:28.532Z,13.30
2023-04-02T01:34:56.185Z,13.30
2023-04-02T01:37:22.987Z,13.30
2023-04-02T01:39:50.020Z,13.20
2023-04-02T01:42:25.850Z,13.30
2023-04-02T01:45:11.357Z,13.20
2023-04-02T01:47:39.856Z,13.20
2023-04-02T01:50:25.680Z,13.20
2023-04-02T01:52:56.769Z,13.20
2023-04-02T01:55:31.670Z,13.10
2023-04-02T01:57:59.715Z,13.20
2023-04-02T02:00:28.109Z,13.20
2023-04-02T02:02:55.168Z,13.20
2023-04-02T02:05:23.188Z,13.20
2023-04-02T02:07:51.441Z,13.20
2023-04-02T02:10:23.798Z,13.10
2023-04-02T02:12:51.291Z,13.10
2023-04-02T02:15:21.797Z,13.10
2023-04-02T02:17:49.234Z,13.10
2023-04-02T02:20:16.417Z,13.10
2023-04-02T02:22:45.405Z,13.10
2023-04-02T02:25:15.214Z,13.10
2023-04-02T02:27:45.028Z,13.10
2023-04-02T02:30:32.400Z,13.10
2023-04-02T02:33:05.652Z,13.10
2023-04-02T02:35:44.034Z,13.10
2023-04-02T02:38:20.578Z,13.10
2023-04-02T02:40:49.476Z,13.10
2023-04-02T02:43:17.494Z,13.10
2023-04-02T02:45:47.294Z,13.10
2023-04-02T02:48:17.331Z,13.00
2023-04-02T02:50:44.693Z,12.90
2023-04-02T02:53:19.848Z,12.80
2023-04-02T02:55:48.137Z,12.70
2023-04-02T02:58:16.311Z,12.70
2023-04-02T03:00:43.326Z,12.70
2023-04-02T03:03:12.671Z,12.70
2023-04-02T03:05:41.031Z,12.60
2023-04-02T03:08:14.123Z,12.60
2023-04-02T03:11:02.624Z,12.60
2023-04-02T03:13:29.466Z,12.60
2023-04-02T03:16:15.445Z,12.60
2023-04-02T03:18:54.766Z,12.60
2023-04-02T03:21:27.647Z,12.50
2023-04-02T03:23:54.374Z,12.50
2023-04-02T03:26:21.318Z,12.50
2023-04-02T03:28:52.427Z,12.50
2023-04-02T03:31:19.226Z,12.50
2023-04-02T03:33:47.995Z,12.50
2023-04-02T03:36:28.624Z,12.50
2023-04-02T03:38:55.418Z,12.50
2023-04-02T03:41:31.086Z,12.50
2023-04-02T03:44:03.395Z,12.50
2023-04-02T03:46:44.871Z,12.40
2023-04-02T03:49:13.462Z,12.40
2023-04-02T03:51:49.650Z,12.40
2023-04-02T03:54:16.779Z,12.40
2023-04-02T03:56:44.613Z,12.30
2023-04-02T03:59:11.542Z,12.40
2023-04-02T04:01:42.427Z,12.40
2023-04-02T04:04:13.702Z,12.30
2023-04-02T04:06:45.508Z,12.30
2023-04-02T04:09:21.108Z,12.20
2023-04-02T04:11:53.001Z,12.20
2023-04-02T04:14:34.979Z,12.20
2023-04-02T04:17:17.345Z,12.20
2023-04-02T04:19:51.943Z,12.20
2023-04-02T04:22:33.221Z,12.20
2023-04-02T04:25:01.702Z,12.20
2023-04-02T04:27:33.758Z,12.20
2023-04-02T04:30:03.966Z,12.20
2023-04-02T04:32:34.118Z,12.20
2023-04-02T04:35:19.699Z,12.10
2023-04-02T04:37:49.810Z,12.10
2023-04-02T04:40:20.957Z,12.10
2023-04-02T04:42:48.673Z,12.10
2023-04-02T04:45:32.245Z,12.10
2023-04-02T04:48:01.678Z,12.00
2023-04-02T04:50:41.402Z,11.90
2023-04-02T04:53:14.089Z,11.90
2023-04-02T04:55:43.697Z,11.90
2023-04-02T04:58:20.168Z,11.90
2023-04-02T05:00:47.843Z,11.80
2023-04-02T05:03:20.968Z,11.80
2023-04-02T05:05:47.819Z,11.80
2023-04-02T05:08:21.006Z,11.70
2023-04-02T05:10:56.952Z,11.60
2023-04-02T05:13:29.827Z,11.60
2023-04-02T05:16:03.113Z,11.60
2023-04-02T05:18:53.578Z,11.50
2023-04-02T05:21:24.106Z,11.50
2023-04-02T05:23:55.815Z,11.40
2023-04-02T05:26:29.980Z,11.40
2023-04-02T05:28:56.721Z,11.40
2023-04-02T05:31:40.460Z,11.30
2023-04-02T05:34:07.472Z,11.20
2023-04-02T05:36:34.680Z,11.10
2023-04-02T05:39:01.735Z,11.10
2023-04-02T05:41:32.471Z,11.10
2023-04-02T05:44:06.001Z,11.10
2023-04-02T05:46:37.953Z,11.00
2023-04-02T05:49:07.215Z,11.00
2023-04-02T05:51:39.684Z,11.00
2023-04-02T05:54:14.485Z,10.90
2023-04-02T05:56:43.156Z,10.90
2023-04-02T05:59:12.850Z,10.90
2023-04-02T06:01:49.503Z,10.90
2023-04-02T06:04:25.846Z,10.80
2023-04-02T06:06:57.445Z,10.70
2023-04-02T06:09:27.775Z,10.70
2023-04-02T06:12:00.605Z,10.70
2023-04-02T06:14:28.161Z,10.70
2023-04-02T06:16:55.282Z,10.70
2023-04-02T06:19:27.481Z,10.70
2023-04-02T06:21:59.544Z,10.70
2023-04-02T06:24:27.830Z,10.70
2023-04-02T06:27:00.190Z,10.70
2023-04-02T06:29:30.981Z,10.70
2023-04-02T06:31:59.152Z,10.70
2023-04-02T06:34:27.895Z,10.70
2023-04-02T06:36:56.143Z,10.70
2023-04-02T06:39:24.058Z,10.70
2023-04-02T06:42:02.349Z,10.70
2023-04-02T06:44:32.213Z,10.70
2023-04-02T06:47:00.288Z,10.80
2023-04-02T06:49:33.630Z,10.80
2023-04-02T06:52:01.672Z,10.90
2023-04-02T06:54:28.483Z,10.90
2023-04-02T06:56:56.678Z,10.90
2023-04-02T06:59:23.522Z,11.00
2023-04-02T07:01:52.462Z,11.00
2023-04-02T07:04:20.151Z,11.00
2023-04-02T07:06:48.136Z,11.10
2023-04-02T07:09:15.062Z,11.20
2023-04-02T07:11:43.280Z,11.20
2023-04-02T07:14:12.241Z,11.20
2023-04-02T07:16:39.340Z,11.20
2023-04-02T07:19:06.102Z,11.30
2023-04-02T07:21:33.018Z,11.30
2023-04-02T07:23:59.712Z,11.30
2023-04-02T07:26:29.724Z,11.30
2023-04-02T07:28:59.487Z,11.40
2023-04-02T07:31:30.166Z,11.50
2023-04-02T07:33:59.893Z,11.60
2023-04-02T07:36:28.116Z,11.60
2023-04-02T07:38:55.009Z,11.70
2023-04-02T07:41:22.056Z,11.60
2023-04-02T07:43:48.789Z,11.60
2023-04-02T07:46:18.109Z,11.60
2023-04-02T07:48:45.036Z,11.60
2023-04-02T07:51:21.058Z,11.60
2023-04-02T07:53:50.555Z,11.60
2023-04-02T07:56:19.005Z,11.60
2023-04-02T07:58:46.324Z,11.70
2023-04-02T08:01:21.122Z,11.80
2023-04-02T08:03:48.046Z,11.70
2023-04-02T08:06:15.071Z,11.80
2023-04-02T08:08:41.857Z,11.80
2023-04-02T08:11:09.173Z,11.80
2023-04-02T08:13:36.178Z,11.80
2023-04-02T08:16:03.961Z,11.80
2023-04-02T08:18:30.948Z,11.90
2023-04-02T08:20:58.086Z,11.80
2023-04-02T08:23:25.413Z,11.80
2023-04-02T08:25:52.105Z,11.90
2023-04-02T08:28:19.093Z,11.90
2023-04-02T08:30:46.221Z,11.90
2023-04-02T08:33:13.967Z,11.80
2023-04-02T08:35:41.962Z,11.70
2023-04-02T08:38:09.942Z,11.70
2023-04-02T08:40:38.025Z,11.70
2023-04-02T08:43:10.933Z,11.80
2023-04-02T08:45:52.991Z,11.90
2023-04-02T08:48:21.342Z,12.00
2023-04-02T08:50:49.232Z,12.10
2023-04-02T08:53:18.987Z,12.10
2023-04-02T08:55:52.961Z,12.10
2023-04-02T08:58:41.558Z,12.20
2023-04-02T09:01:15.080Z,12.20
2023-04-02T09:03:44.865Z,12.20
2023-04-02T09:06:15.986Z,12.20
2023-04-02T09:08:44.622Z,12.10
2023-04-02T09:11:26.790Z,12.10
2023-04-02T09:13:57.675Z,12.10
2023-04-02T09:16:44.984Z,12.20
2023-04-02T09:19:16.429Z,12.20
2023-04-02T09:21:45.881Z,12.40
2023-04-02T09:24:13.911Z,12.40
2023-04-02T09:26:40.902Z,12.50
2023-04-02T09:29:13.747Z,12.50
2023-04-02T09:31:43.831Z,12.40
2023-04-02T09:34:29.746Z,12.30
2023-04-02T09:36:57.175Z,12.40
2023-04-02T09:39:26.440Z,12.40
2023-04-02T09:42:05.051Z,12.50
2023-04-02T09:44:32.825Z,12.50
2023-04-02T09:47:03.706Z,12.60
2023-04-02T09:49:34.620Z,12.80
2023-04-02T09:52:20.653Z,13.00
2023-04-02T09:55:04.800Z,13.20
2023-04-02T09:57:33.887Z,13.50
2023-04-02T10:00:30.695Z,13.70
2023-04-02T10:03:05.422Z,13.90
2023-04-02T10:05:40.703Z,14.00
2023-04-02T10:08:14.672Z,14.20
2023-04-02T10:10:43.359Z,14.40
2023-04-02T10:13:27.761Z,14.60
2023-04-02T10:15:57.280Z,14.80
2023-04-02T10:18:44.983Z,14.90
2023-04-02T10:21:13.835Z,15.00
2023-04-02T10:23:40.924Z,15.10
2023-04-02T10:26:23.137Z,15.30
2023-04-02T10:28:56.087Z,15.40
2023-04-02T10:31:25.525Z,15.50
2023-04-02T10:33:58.151Z,15.60
2023-04-02T10:36:24.695Z,15.70
2023-04-02T10:38:55.543Z,15.80
2023-04-02T10:41:27.194Z,15.70
2023-04-02T10:44:09.146Z,15.80
2023-04-02T10:46:45.161Z,15.80
2023-04-02T10:49:41.768Z,15.90
2023-04-02T10:52:13.955Z,16.00
2023-04-02T10:54:54.594Z,16.00
2023-04-02T10:57:37.790Z,16.10
2023-04-02T11:00:18.367Z,16.30
2023-04-02T11:02:57.697Z,16.30
2023-04-02T11:05:44.475Z,16.20
2023-04-02T11:08:14.524Z,16.20
2023-04-02T11:10:45.210Z,16.30
2023-04-02T11:13:20.442Z,16.50
2023-04-02T11:15:47.305Z,16.60
2023-04-02T11:18:36.510Z,16.60
2023-04-02T11:21:04.898Z,16.70
2023-04-02T11:23:37.106Z,16.70
2023-04-02T11:26:24.132Z,16.70
2023-04-02T11:29:00.796Z,16.90
2023-04-02T11:31:27.859Z,17.00
2023-04-02T11:33:54.485Z,17.20
2023-04-02T11:36:40.051Z,17.30
2023-04-02T11:39:16.917Z,17.40
2023-04-02T11:42:03.344Z,17.60
2023-04-02T11:44:30.130Z,17.80
2023-04-02T11:47:23.326Z,17.90
2023-04-02T11:49:59.464Z,17.90
2023-04-02T11:52:49.280Z,17.90
2023-04-02T11:55:45.628Z,17.90
2023-04-02T11:58:12.483Z,18.10
2023-04-02T12:00:51.793Z,18.30
2023-04-02T12:03:21.738Z,18.50
2023-04-02T12:05:54.743Z,18.70
2023-04-02T12:08:27.501Z,18.80
2023-04-02T12:11:01.263Z,19.00
2023-04-02T12:13:40.219Z,19.10
2023-04-02T12:16:11.438Z,19.10
2023-04-02T12:18:51.303Z,19.00
2023-04-02T12:21:20.404Z,19.10
2023-04-02T12:23:48.879Z,19.40
2023-04-02T12:26:24.707Z,19.70
2023-04-02T12:28:51.431Z,20.00
2023-04-02T12:31:25.397Z,20.40
2023-04-02T12:33:52.787Z,20.80
2023-04-02T12:36:21.672Z,21.10
2023-04-02T12:38:50.681Z,21.40
2023-04-02T12:41:21.462Z,21.70
2023-04-02T12:43:59.386Z,22.00
2023-04-02T12:46:27.120Z,22.40
2023-04-02T12:48:55.602Z,22.80
2023-04-02T12:51:22.294Z,23.10
2023-04-02T12:53:52.580Z,23.50
2023-04-02T12:56:21.940Z,23.80
2023-04-02T12:58:52.994Z,24.00
2023-04-02T13:01:27.740Z,24.40
2023-04-02T13:04:08.350Z,24.80
2023-04-02T13:06:36.349Z,25.00
2023-04-02T13:09:05.165Z,25.20
2023-04-02T13:11:39.431Z,25.60
2023-04-02T13:14:18.051Z,25.80
2023-04-02T13:16:44.957Z,25.90
2023-04-02T13:19:20.667Z,26.10
2023-04-02T13:21:47.429Z,26.30
2023-04-02T13:24:21.145Z,26.50
2023-04-02T13:26:49.749Z,26.70
2023-04-02T13:29:19.440Z,26.90
2023-04-02T13:31:46.612Z,27.10
2023-04-02T13:34:13.393Z,27.30
2023-04-02T13:36:40.980Z,27.50
2023-04-02T13:39:08.602Z,27.50
2023-04-02T13:41:39.442Z,27.60
2023-04-02T13:44:06.284Z,27.90
2023-04-02T13:46:34.400Z,27.80
2023-04-02T13:49:01.399Z,27.90
2023-04-02T13:51:37.587Z,28.00
2023-04-02T13:54:07.426Z,28.10
2023-04-02T13:56:34.224Z,28.20
2023-04-02T13:59:04.078Z,28.40
2023-04-02T14:01:31.410Z,28.60
2023-04-02T14:03:58.620Z,28.70
2023-04-02T14:06:37.502Z,28.90
2023-04-02T14:09:09.551Z,29.00
2023-04-02T14:11:36.628Z,29.30
2023-04-02T14:14:17.475Z,29.30
2023-04-02T14:16:45.893Z,29.10
2023-04-02T14:19:24.757Z,29.20
2023-04-02T14:22:14.623Z,29.30
2023-04-02T14:24:47.411Z,29.40
2023-04-02T14:27:37.921Z,29.60
2023-04-02T14:30:13.531Z,29.70
2023-04-02T14:33:05.628Z,29.80
2023-04-02T14:35:35.660Z,29.80
2023-04-02T14:38:02.554Z,30.20
2023-04-02T14:40:30.437Z,30.50
2023-04-02T14:43:15.556Z,30.80
2023-04-02T14:45:51.953Z,30.90
2023-04-02T14:48:19.268Z,30.90
2023-04-02T14:50:46.371Z,30.90
2023-04-02T14:53:20.681Z,31.00
2023-04-02T14:55:49.466Z,31.20
2023-04-02T14:58:22.603Z,31.10
2023-04-02T15:00:58.321Z,31.20
2023-04-02T15:03:26.305Z,31.50
2023-04-02T15:05:56.145Z,31.70
2023-04-02T15:08:25.760Z,31.80
2023-04-02T15:10:52.391Z,31.90
2023-04-02T15:13:23.364Z,32.10
2023-04-02T15:16:00.021Z,32.10
2023-04-02T15:18:27.159Z,32.20
2023-04-02T15:21:06.334Z,32.20
2023-04-02T15:23:36.486Z,32.30
2023-04-02T15:26:13.230Z,32.40
2023-04-02T15:28:44.112Z,32.30
2023-04-02T15:31:15.038Z,32.40
2023-04-02T15:33:42.195Z,32.20
2023-04-02T15:36:21.852Z,32.30
2023-04-02T15:39:15.815Z,32.40
2023-04-02T15:41:49.528Z,32.40
2023-04-02T15:44:17.061Z,32.60
2023-04-02T15:46:43.908Z,32.70
2023-04-02T15:49:26.191Z,32.70
2023-04-02T15:52:04.368Z,32.60
2023-04-02T15:54:40.606Z,32.30
2023-04-02T15:57:07.517Z,32.40
2023-04-02T15:59:46.619Z,32.20
2023-04-02T16:02:13.317Z,32.10
2023-04-02T16:04:47.549Z,31.80
2023-04-02T16:07:19.710Z,31.90
2023-04-02T16:09:49.434Z,32.00
2023-04-02T16:12:18.098Z,32.00
2023-04-02T16:14:45.765Z,31.90
2023-04-02T16:17:24.888Z,31.90
2023-04-02T16:20:11.168Z,32.00
2023-04-02T16:22:44.439Z,32.00
2023-04-02T16:25:22.496Z,32.10
2023-04-02T16:28:01.321Z,32.20
2023-04-02T16:30:44.039Z,32.20
2023-04-02T16:33:10.693Z,32.20
2023-04-02T16:35:58.218Z,32.20
2023-04-02T16:38:48.290Z,32.20
2023-04-02T16:41:15.486Z,32.20
2023-04-02T16:43:45.536Z,32.30
2023-04-02T16:46:39.340Z,32.10
2023-04-02T16:49:09.910Z,32.10
2023-04-02T16:51:48.795Z,31.90
2023-04-02T16:54:22.799Z,31.90
2023-04-02T16:56:59.300Z,31.90
2023-04-02T16:59:35.917Z,31.80
2023-04-02T17:02:10.521Z,31.70
2023-04-02T17:04:46.537Z,31.40
2023-04-02T17:07:32.607Z,31.20
2023-04-02T17:10:19.552Z,31.10
2023-04-02T17:12:47.512Z,30.80
2023-04-02T17:15:27.785Z,30.60
2023-04-02T17:18:00.550Z,30.50
2023-04-02T17:20:28.371Z,30.30
2023-04-02T17:22:55.759Z,30.00
2023-04-02T17:25:31.805Z,29.70
2023-04-02T17:27:59.018Z,29.70
2023-04-02T17:30:36.360Z,29.40
2023-04-02T17:33:06.219Z,29.10
2023-04-02T17:35:34.527Z,28.80
2023-04-02T17:38:08.628Z,28.70
2023-04-02T17:40:39.935Z,28.30
2023-04-02T17:43:27.506Z,27.90
2023-04-02T17:46:01.747Z,27.60
2023-04-02T17:48:28.588Z,27.10
2023-04-02T17:51:04.666Z,26.70
2023-04-02T17:53:38.040Z,26.40
2023-04-02T17:56:24.098Z,26.10
2023-04-02T17:58:59.949Z,25.70
2023-04-02T18:01:52.118Z,25.10
2023-04-02T18:04:29.851Z,24.80
2023-04-02T18:07:15.921Z,24.10
2023-04-02T18:09:49.024Z,23.60
2023-04-02T18:12:29.272Z,22.90
2023-04-02T18:14:56.162Z,22.40
2023-04-02T18:17:38.803Z,22.00
2023-04-02T18:20:11.668Z,21.60
2023-04-02T18:22:47.573Z,21.10
2023-04-02T18:25:27.479Z,20.70
2023-04-02T18:28:03.864Z,20.30
2023-04-02T18:30:30.953Z,19.90
2023-04-02T18:33:13.401Z,19.60
2023-04-02T18:35:50.872Z,19.40
2023-04-02T18:38:29.453Z,19.10
2023-04-02T18:41:01.887Z,18.90
2023-04-02T18:43:53.171Z,18.60
2023-04-02T18:46:23.123Z,18.40
2023-04-02T18:48:59.037Z,18.10
2023-04-02T18:51:27.127Z,18.00
2023-04-02T18:54:10.970Z,17.90
2023-04-02T18:56:41.814Z,17.70
2023-04-02T18:59:23.647Z,17.60
2023-04-02T19:01:51.431Z,17.40
2023-04-02T19:04:22.363Z,17.30
2023-04-02T19:06:52.382Z,17.20
2023-04-02T19:09:22.079Z,17.10
2023-04-02T19:11:49.128Z,17.00
2023-04-02T19:14:19.789Z,16.90
2023-04-02T19:17:12.773Z,16.80
2023-04-02T19:19:58.420Z,16.70
2023-04-02T19:22:43.761Z,16.60
2023-04-02T19:25:17.749Z,16.50
2023-04-02T19:27:51.984Z,16.40
2023-04-02T19:30:24.820Z,16.40
2023-04-02T19:33:04.931Z,16.30
2023-04-02T19:35:38.284Z,16.30
2023-04-02T19:38:47.670Z,16.20
2023-04-02T19:41:14.375Z,16.10
2023-04-02T19:43:41.096Z,16.00
2023-04-02T19:46:08.138Z,15.90
2023-04-02T19:48:46.133Z,15.90
2023-04-02T19:51:13.746Z,15.90
2023-04-02T19:53:41.490Z,15.80
2023-04-02T19:56:08.359Z,15.80
2023-04-02T19:58:36.354Z,15.80
2023-04-02T20:01:05.025Z,15.70
2023-04-02T20:03:32.806Z,15.70
2023-04-02T20:06:01.632Z,15.60
2023-04-02T20:08:28.749Z,15.50
2023-04-02T20:10:55.865Z,15.50
2023-04-02T20:13:23.820Z,15.40
2023-04-02T20:15:51.429Z,15.40
2023-04-02T20:18:19.295Z,15.40
2023-04-02T20:20:47.057Z,15.30
2023-04-02T20:23:13.902Z,15.30
2023-04-02T20:25:46.485Z,15.30
2023-04-02T20:28:13.680Z,15.20
2023-04-02T20:30:41.141Z,15.10
2023-04-02T20:33:10.221Z,15.10
2023-04-02T20:35:37.858Z,15.00
2023-04-02T20:38:06.677Z,15.00
2023-04-02T20:40:34.888Z,14.90
2023-04-02T20:43:02.221Z,14.90
2023-04-02T20:45:29.676Z,14.80
2023-04-02T20:47:56.873Z,14.80
2023-04-02T20:50:23.729Z,14.70
2023-04-02T20:52:51.340Z,14.60
2023-04-02T20:55:20.922Z,14.50
2023-04-02T20:57:47.843Z,14.50
2023-04-02T21:00:16.181Z,14.50
2023-04-02T21:02:47.320Z,14.40
2023-04-02T21:05:14.400Z,14.30
2023-04-02T21:07:41.700Z,14.20
2023-04-02T21:10:08.965Z,14.20
2023-04-02T21:12:36.052Z,14.20
2023-04-02T21:15:03.195Z,14.20
2023-04-02T21:17:30.376Z,14.10
2023-04-02T21:19:57.283Z,14.10
2023-04-02T21:22:24.033Z,14.00
2023-04-02T21:24:51.031Z,14.00
2023-04-02T21:27:18.442Z,13.90
2023-04-02T21:29:45.193Z,13.90
2023-04-02T21:32:20.710Z,13.80
2023-04-02T21:34:50.849Z,13.80
2023-04-02T21:37:17.826Z,13.70
2023-04-02T21:39:46.062Z,13.60
2023-04-02T21:42:14.179Z,13.60
2023-04-02T21:44:41.528Z,13.60
2023-04-02T21:47:08.771Z,13.60
2023-04-02T21:49:35.417Z,13.40
2023-04-02T21:52:02.124Z,13.40
2023-04-02T21:54:29.829Z,13.40
2023-04-02T21:56:57.053Z,13.40
2023-04-02T21:59:23.866Z,13.30
2023-04-02T22:01:51.223Z,13.30
2023-04-02T22:04:22.456Z,13.20
2023-04-02T22:06:49.659Z,13.10
2023-04-02T22:09:17.676Z,13.10
2023-04-02T22:11:47.485Z,13.10
2023-04-02T22:14:14.400Z,13.00
2023-04-02T22:16:41.600Z,13.00
2023-04-02T22:19:10.515Z,12.90
2023-04-02T22:21:37.752Z,12.90
2023-04-02T22:24:05.728Z,12.80
2023-04-02T22:26:34.097Z,12.80
2023-04-02T22:29:00.840Z,12.80
2023-04-02T22:31:29.297Z,12.70
2023-04-02T22:33:57.186Z,12.70
2023-04-02T22:36:24.496Z,12.60
2023-04-02T22:38:52.064Z,12.60
2023-04-02T22:41:24.982Z,12.60
2023-04-02T22:43:52.033Z,12.50
2023-04-02T22:46:20.860Z,12.50
2023-04-02T22:48:48.190Z,12.50
2023-04-02T22:51:17.320Z,12.40
2023-04-02T22:53:45.508Z,12.40
2023-04-02T22:56:17.408Z,12.30
2023-04-02T22:58:44.819Z,12.30
2023-04-02T23:01:11.945Z,12.30
2023-04-02T23:03:39.095Z,12.20
2023-04-02T23:06:07.500Z,12.20
2023-04-02T23:08:35.136Z,12.20
2023-04-02T23:11:06.818Z,12.10
2023-04-02T23:13:34.274Z,12.10
2023-04-02T23:16:01.980Z,12.10
2023-04-02T23:18:29.440Z,12.00
2023-04-02T23:20:56.592Z,12.00
2023-04-02T23:23:23.601Z,11.90
2023-04-02T23:25:50.584Z,11.90
2023-04-02T23:28:17.383Z,11.90
2023-04-02T23:30:44.078Z,11.80
2023-04-02T23:33:10.856Z,11.80
2023-04-02T23:35:37.546Z,11.80
2023-04-02T23:38:04.386Z,11.70
2023-04-02T23:40:31.039Z,11.80
2023-04-02T23:42:58.909Z,11.70
2023-04-02T23:45:25.890Z,11.60
2023-04-02T23:47:52.782Z,11.60
2023-04-02T23:50:19.833Z,11.50
2023-04-02T23:52:47.489Z,11.50
2023-04-02T23:55:14.260Z,11.50
2023-04-02T23:57:41.423Z,11.50
